Time;durP1;ratioP1;P1;durP2;ratioP2;P2;SDS_P1;SDS_P2;PMS_P1;PMS_P2;Temp;Humidity;BMP_temperature;BMP_pressure;BME280_temperature;BME280_humidity;BME280_pressure;Samples;Min_cycle;Max_cycle;Signal;HPM_P1;HPM_P2
2023/02/09 00:00:39;;;;;;;65.78;30.38;;;;;;;;;;5062617;28;20040;-73
2023/02/09 00:03:05;;;;;;;68.10;34.05;;;;;;;;;;5059038;28;20041;-72
2023/02/09 00:05:31;;;;;;;58.88;30.25;;;;;;;;;;5057440;28;20029;-72
2023/02/09 00:07:57;;;;;;;59.53;31.98;;;;;;;;;;5059093;28;20067;-72
2023/02/09 00:10:23;;;;;;;59.50;29.40;;;;;;;;;;5056375;28;20391;-72
2023/02/09 00:15:34;;;;;;;60.78;32.17;;;;;;;;;;5060749;28;20106;-73
2023/02/09 00:18:00;;;;;;;62.55;33.17;;;;;;;;;;5059475;28;20029;-72
2023/02/09 00:20:26;;;;;;;64.55;31.85;;;;;;;;;;5064954;28;20040;-72
2023/02/09 00:22:52;;;;;;;57.92;29.95;;;;;;;;;;5061645;28;20045;-72
2023/02/09 00:25:18;;;;;;;59.63;31.42;;;;;;;;;;5063398;28;20497;-72
2023/02/09 00:27:44;;;;;;;67.93;35.50;;;;;;;;;;5056907;28;20029;-72
2023/02/09 00:30:10;;;;;;;65.82;36.28;;;;;;;;;;5056637;28;20037;-72
2023/02/09 00:32:36;;;;;;;66.90;33.95;;;;;;;;;;5059793;28;20036;-72
2023/02/09 00:35:06;;;;;;;67.28;34.80;;;;;;;;;;5063700;28;20776;-72
2023/02/09 00:37:34;;;;;;;57.28;30.23;;;;;;;;;;5055976;28;20086;-71
2023/02/09 00:40:00;;;;;;;63.65;29.13;;;;;;;;;;5055690;28;20047;-72
2023/02/09 00:42:26;;;;;;;59.33;31.77;;;;;;;;;;5058297;28;20033;-72
2023/02/09 00:44:52;;;;;;;57.30;28.92;;;;;;;;;;5057757;28;20033;-72
2023/02/09 00:47:18;;;;;;;53.45;28.35;;;;;;;;;;5059394;28;20036;-72
2023/02/09 00:49:44;;;;;;;50.67;27.30;;;;;;;;;;5063189;28;20737;-72
2023/02/09 00:52:10;;;;;;;53.25;28.10;;;;;;;;;;5061984;28;20044;-72
2023/02/09 00:54:36;;;;;;;48.97;26.42;;;;;;;;;;5056484;28;20443;-71
2023/02/09 00:57:04;;;;;;;47.85;25.10;;;;;;;;;;5065330;28;20033;-72
2023/02/09 00:59:32;;;;;;;49.65;24.70;;;;;;;;;;5060241;28;20774;-72
2023/02/09 01:01:57;;;;;;;49.58;26.85;;;;;;;;;;5062587;28;20042;-72
2023/02/09 01:04:23;;;;;;;51.05;24.90;;;;;;;;;;5060653;28;20036;-72
2023/02/09 01:06:49;;;;;;;49.85;26.90;;;;;;;;;;5063676;28;20033;-72
2023/02/09 01:09:15;;;;;;;44.88;23.70;;;;;;;;;;5052367;28;20079;-72
2023/02/09 01:11:41;;;;;;;47.55;24.00;;;;;;;;;;5056121;28;20501;-72
2023/02/09 01:14:08;;;;;;;43.90;22.92;;;;;;;;;;5055738;28;20025;-72
2023/02/09 01:16:34;;;;;;;49.53;25.50;;;;;;;;;;5062045;28;20051;-72
2023/02/09 01:19:01;;;;;;;51.20;26.95;;;;;;;;;;5064438;28;20036;-72
2023/02/09 01:21:27;;;;;;;59.28;31.45;;;;;;;;;;5053438;28;20625;-72
2023/02/09 01:23:53;;;;;;;54.30;27.48;;;;;;;;;;5048518;28;20088;-72
2023/02/09 01:26:19;;;;;;;51.92;25.45;;;;;;;;;;5057094;28;20060;-73
2023/02/09 01:28:48;;;;;;;48.22;25.13;;;;;;;;;;5051388;28;20052;-74
2023/02/09 01:31:19;;;;;;;52.65;26.83;;;;;;;;;;5054594;28;20070;-73
2023/02/09 01:33:45;;;;;;;51.25;26.02;;;;;;;;;;5057920;28;20029;-74
2023/02/09 01:36:11;;;;;;;48.65;23.77;;;;;;;;;;5038417;28;20433;-73
2023/02/09 01:38:37;;;;;;;45.70;24.27;;;;;;;;;;5053721;28;20037;-73
2023/02/09 01:41:03;;;;;;;47.70;24.48;;;;;;;;;;5055332;28;20812;-70
2023/02/09 01:43:29;;;;;;;47.45;23.83;;;;;;;;;;5061988;28;20024;-73
2023/02/09 01:45:55;;;;;;;52.58;27.10;;;;;;;;;;5059232;28;20100;-73
2023/02/09 01:48:25;;;;;;;43.60;22.55;;;;;;;;;;5056883;28;20033;-73
2023/02/09 01:50:52;;;;;;;42.40;21.73;;;;;;;;;;5061154;28;20539;-73
2023/02/09 01:53:19;;;;;;;41.63;21.92;;;;;;;;;;5059757;28;20603;-73
2023/02/09 01:55:56;;;;;;;40.85;20.52;;;;;;;;;;5060614;28;20409;-73
2023/02/09 01:58:22;;;;;;;50.05;22.65;;;;;;;;;;5065799;28;20036;-72
2023/02/09 02:00:48;;;;;;;43.65;21.83;;;;;;;;;;5062980;28;20060;-73
2023/02/09 02:03:25;;;;;;;40.45;21.70;;;;;;;;;;5064770;28;20078;-73
2023/02/09 02:05:52;;;;;;;37.85;21.77;;;;;;;;;;5063531;28;20051;-73
2023/02/09 02:08:20;;;;;;;45.83;22.98;;;;;;;;;;5058175;28;20048;-73
2023/02/09 02:10:46;;;;;;;46.13;22.85;;;;;;;;;;5058844;28;20039;-73
2023/02/09 02:13:12;;;;;;;39.88;20.27;;;;;;;;;;5061993;28;20044;-73
2023/02/09 02:15:50;;;;;;;41.05;19.50;;;;;;;;;;5058458;28;20029;-73
2023/02/09 02:18:42;;;;;;;37.55;19.63;;;;;;;;;;5064424;28;20877;-73
2023/02/09 02:21:11;;;;;;;43.30;21.45;;;;;;;;;;5045181;28;20056;-73
2023/02/09 02:23:50;;;;;;;36.75;19.15;;;;;;;;;;5061480;28;20068;-73
2023/02/09 02:26:35;;;;;;;42.17;21.83;;;;;;;;;;5058472;28;20103;-73
2023/02/09 02:29:19;;;;;;;44.97;20.38;;;;;;;;;;5063740;28;20107;-73
2023/02/09 02:31:45;;;;;;;32.65;18.38;;;;;;;;;;5056985;28;20131;-73
2023/02/09 02:34:14;;;;;;;37.05;18.38;;;;;;;;;;5061834;28;20537;-72
2023/02/09 02:36:54;;;;;;;35.38;17.52;;;;;;;;;;5059934;28;20036;-73
2023/02/09 02:39:42;;;;;;;36.55;17.88;;;;;;;;;;5060722;28;20032;-73
2023/02/09 02:45:34;;;;;;;33.70;17.27;;;;;;;;;;5055945;28;20112;-73
2023/02/09 02:48:07;;;;;;;31.92;15.18;;;;;;;;;;5024133;28;20566;-73
2023/02/09 02:50:36;;;;;;;34.45;16.63;;;;;;;;;;5067737;28;20036;-73
2023/02/09 02:53:04;;;;;;;30.02;15.70;;;;;;;;;;5055957;28;20083;-72
2023/02/09 02:55:31;;;;;;;29.17;14.85;;;;;;;;;;5062398;28;20056;-73
2023/02/09 02:57:58;;;;;;;27.02;14.48;;;;;;;;;;5055798;28;20162;-72
2023/02/09 03:00:33;;;;;;;31.88;15.77;;;;;;;;;;5059024;28;20035;-72
2023/02/09 03:03:03;;;;;;;32.75;17.63;;;;;;;;;;5063076;28;20549;-72
2023/02/09 03:05:29;;;;;;;32.22;15.55;;;;;;;;;;5060764;28;20025;-72
2023/02/09 03:07:55;;;;;;;29.63;15.68;;;;;;;;;;5054734;28;20126;-73
2023/02/09 03:10:24;;;;;;;28.58;14.13;;;;;;;;;;5058160;28;20478;-72
2023/02/09 03:13:06;;;;;;;35.08;17.58;;;;;;;;;;5043241;28;20032;-72
2023/02/09 03:15:57;;;;;;;32.33;17.23;;;;;;;;;;5059701;28;20074;-73
2023/02/09 03:18:41;;;;;;;26.40;14.32;;;;;;;;;;5054934;28;20040;-72
2023/02/09 03:21:25;;;;;;;25.90;13.23;;;;;;;;;;5054560;28;20025;-72
2023/02/09 03:23:57;;;;;;;30.23;15.70;;;;;;;;;;5059040;28;20083;-73
2023/02/09 03:26:26;;;;;;;29.30;13.20;;;;;;;;;;5063490;28;20131;-73
2023/02/09 03:28:54;;;;;;;32.47;14.43;;;;;;;;;;5064804;28;20324;-72
2023/02/09 03:31:21;;;;;;;28.42;14.25;;;;;;;;;;5058388;28;20043;-72
2023/02/09 03:33:47;;;;;;;30.02;15.85;;;;;;;;;;5061250;28;20036;-72
2023/02/09 03:36:15;;;;;;;35.67;14.75;;;;;;;;;;5058004;28;20028;-73
2023/02/09 03:38:41;;;;;;;29.10;15.23;;;;;;;;;;5060338;28;20393;-73
2023/02/09 03:41:07;;;;;;;28.63;14.90;;;;;;;;;;5066108;28;20028;-72
2023/02/09 03:46:17;;;;;;;34.33;15.32;;;;;;;;;;5061131;28;20070;-73
2023/02/09 03:48:43;;;;;;;26.40;12.85;;;;;;;;;;5046480;28;20025;-73
2023/02/09 03:51:09;;;;;;;28.90;14.88;;;;;;;;;;5064701;28;20029;-72
2023/02/09 03:53:36;;;;;;;27.02;13.43;;;;;;;;;;5065748;28;20097;-73
2023/02/09 03:56:03;;;;;;;29.05;13.65;;;;;;;;;;5061419;28;20039;-73
2023/02/09 03:58:29;;;;;;;27.10;13.43;;;;;;;;;;5044719;28;20036;-73
2023/02/09 04:00:55;;;;;;;25.30;13.07;;;;;;;;;;5059619;28;20028;-72
2023/02/09 04:03:21;;;;;;;30.70;13.60;;;;;;;;;;5059086;28;20028;-72
2023/02/09 04:05:47;;;;;;;27.92;13.18;;;;;;;;;;5054979;28;20505;-72
2023/02/09 04:08:13;;;;;;;25.08;12.52;;;;;;;;;;5057980;28;20037;-72
2023/02/09 04:10:39;;;;;;;34.42;14.65;;;;;;;;;;5061912;28;20120;-73
2023/02/09 04:13:05;;;;;;;26.25;11.82;;;;;;;;;;5063186;28;20036;-71
2023/02/09 04:15:31;;;;;;;26.40;12.85;;;;;;;;;;5056858;28;20904;-72
2023/02/09 04:17:57;;;;;;;27.08;12.68;;;;;;;;;;5063957;28;20040;-72
2023/02/09 04:20:22;;;;;;;24.20;12.15;;;;;;;;;;5059668;28;20032;-73
2023/02/09 04:22:48;;;;;;;22.85;11.93;;;;;;;;;;5057837;28;20052;-72
2023/02/09 04:25:14;;;;;;;22.77;12.02;;;;;;;;;;5059076;28;20118;-72
2023/02/09 04:27:40;;;;;;;24.48;11.43;;;;;;;;;;5064025;28;20126;-72
2023/02/09 04:30:07;;;;;;;25.65;12.43;;;;;;;;;;5061252;28;20035;-73
2023/02/09 04:32:33;;;;;;;22.38;11.88;;;;;;;;;;5056330;28;20133;-72
2023/02/09 04:34:59;;;;;;;26.85;12.15;;;;;;;;;;5053029;28;20103;-72
2023/02/09 04:37:25;;;;;;;23.77;11.70;;;;;;;;;;5056355;28;20041;-72
2023/02/09 04:39:51;;;;;;;18.98;9.45;;;;;;;;;;5055883;28;20032;-72
2023/02/09 04:42:17;;;;;;;25.77;11.27;;;;;;;;;;5060090;28;20028;-72
2023/02/09 04:44:43;;;;;;;21.85;11.13;;;;;;;;;;5055148;28;20025;-72
2023/02/09 04:47:09;;;;;;;23.23;12.43;;;;;;;;;;5060099;28;20493;-72
2023/02/09 04:49:35;;;;;;;27.85;12.23;;;;;;;;;;5056348;28;20025;-73
2023/02/09 04:52:01;;;;;;;24.20;12.55;;;;;;;;;;5063539;28;20047;-72
2023/02/09 04:54:28;;;;;;;29.27;12.43;;;;;;;;;;5059264;28;20060;-72
2023/02/09 04:59:33;;;;;;;22.85;12.02;;;;;;;;;;5056846;28;20032;-73
2023/02/09 04:59:40;;;;;;;34.13;14.20;;;;;;;;;;5053051;28;20094;-73
2023/02/09 05:02:06;;;;;;;33.40;15.70;;;;;;;;;;5053789;28;20032;-73
2023/02/09 05:04:32;;;;;;;29.02;14.63;;;;;;;;;;5056422;28;20037;-72
2023/02/09 05:06:58;;;;;;;32.42;15.30;;;;;;;;;;5063596;28;20032;-72
2023/02/09 05:09:24;;;;;;;30.33;15.02;;;;;;;;;;5063965;28;20098;-72
2023/02/09 05:11:50;;;;;;;34.92;15.70;;;;;;;;;;5054061;28;20039;-73
2023/02/09 05:14:16;;;;;;;32.28;16.35;;;;;;;;;;5059974;28;20048;-73
2023/02/09 05:16:42;;;;;;;30.73;15.48;;;;;;;;;;5055054;28;20032;-72
2023/02/09 05:19:08;;;;;;;34.28;18.45;;;;;;;;;;5058521;28;20142;-73
2023/02/09 05:21:34;;;;;;;38.95;19.38;;;;;;;;;;5054923;28;20040;-72
2023/02/09 05:24:00;;;;;;;46.30;22.70;;;;;;;;;;5060328;28;20037;-72
2023/02/09 05:26:26;;;;;;;104.70;44.92;;;;;;;;;;5055506;28;20025;-72
2023/02/09 05:28:52;;;;;;;113.30;52.75;;;;;;;;;;5059219;28;20115;-73
2023/02/09 05:31:19;;;;;;;103.78;52.15;;;;;;;;;;5061581;28;20036;-72
2023/02/09 05:33:45;;;;;;;83.60;41.03;;;;;;;;;;5060371;28;20055;-73
2023/02/09 05:36:11;;;;;;;69.88;31.55;;;;;;;;;;5059926;28;20119;-73
2023/02/09 05:38:38;;;;;;;54.55;24.90;;;;;;;;;;5056570;28;20048;-72
2023/02/09 05:41:05;;;;;;;49.53;24.65;;;;;;;;;;5045233;28;20025;-73
2023/02/09 05:43:31;;;;;;;50.90;25.70;;;;;;;;;;5057397;28;20412;-72
2023/02/09 05:45:57;;;;;;;49.22;26.15;;;;;;;;;;5066567;28;20032;-73
2023/02/09 05:48:24;;;;;;;46.85;25.10;;;;;;;;;;5058405;28;20047;-73
2023/02/09 05:50:50;;;;;;;46.28;24.23;;;;;;;;;;5069394;28;20032;-72
2023/02/09 05:53:16;;;;;;;48.97;24.23;;;;;;;;;;5063600;28;20481;-72
2023/02/09 05:55:42;;;;;;;44.70;22.08;;;;;;;;;;5060708;28;20040;-73
2023/02/09 05:58:09;;;;;;;39.95;20.33;;;;;;;;;;5065374;28;20033;-72
2023/02/09 06:00:35;;;;;;;40.17;20.00;;;;;;;;;;5062466;28;20718;-72
2023/02/09 06:03:01;;;;;;;47.75;23.25;;;;;;;;;;5061784;28;20704;-73
2023/02/09 06:05:28;;;;;;;44.08;23.52;;;;;;;;;;5060865;28;20075;-72
2023/02/09 06:07:54;;;;;;;48.20;24.15;;;;;;;;;;5062147;28;20028;-72
2023/02/09 06:10:20;;;;;;;47.42;23.92;;;;;;;;;;5060908;28;20123;-72
2023/02/09 06:12:47;;;;;;;50.03;23.50;;;;;;;;;;5060078;28;20414;-72
2023/02/09 06:15:15;;;;;;;48.03;22.67;;;;;;;;;;5063697;28;20032;-73
2023/02/09 06:17:41;;;;;;;40.90;23.42;;;;;;;;;;5068276;28;20806;-73
2023/02/09 06:20:07;;;;;;;47.15;23.08;;;;;;;;;;5053385;28;20768;-73
2023/02/09 06:22:33;;;;;;;52.50;25.25;;;;;;;;;;5062345;28;20041;-72
2023/02/09 06:24:59;;;;;;;46.38;24.85;;;;;;;;;;5059898;28;20025;-73
2023/02/09 06:27:25;;;;;;;57.08;28.33;;;;;;;;;;5059967;28;20029;-73
2023/02/09 06:29:51;;;;;;;49.53;26.67;;;;;;;;;;5059025;28;20029;-72
2023/02/09 06:32:17;;;;;;;46.38;24.70;;;;;;;;;;5061948;28;20661;-72
2023/02/09 06:34:43;;;;;;;55.50;30.83;;;;;;;;;;5057641;28;20029;-73
2023/02/09 06:37:09;;;;;;;42.75;23.38;;;;;;;;;;5058252;28;20068;-72
2023/02/09 06:39:35;;;;;;;34.88;19.75;;;;;;;;;;5054076;28;20029;-72
2023/02/09 06:42:01;;;;;;;36.17;18.98;;;;;;;;;;5056367;28;20029;-72
2023/02/09 06:44:27;;;;;;;38.53;22.05;;;;;;;;;;5057413;28;20036;-72
2023/02/09 06:46:53;;;;;;;54.28;27.17;;;;;;;;;;5056014;28;20090;-73
2023/02/09 06:49:22;;;;;;;63.20;28.90;;;;;;;;;;5062426;28;20033;-73
2023/02/09 06:51:48;;;;;;;52.60;25.70;;;;;;;;;;5055268;28;20036;-72
2023/02/09 06:54:14;;;;;;;53.35;23.48;;;;;;;;;;5057876;28;20028;-72
2023/02/09 06:56:40;;;;;;;55.15;22.55;;;;;;;;;;5053210;28;20037;-73
2023/02/09 06:59:06;;;;;;;44.78;23.52;;;;;;;;;;5043514;28;20090;-71
2023/02/09 07:01:32;;;;;;;43.60;19.77;;;;;;;;;;5042228;28;20036;-72
2023/02/09 07:03:58;;;;;;;44.30;22.88;;;;;;;;;;5061284;28;20035;-71
2023/02/09 07:06:24;;;;;;;40.95;21.55;;;;;;;;;;5057866;28;20075;-71
2023/02/09 07:08:50;;;;;;;43.28;20.38;;;;;;;;;;5053779;28;20739;-72
2023/02/09 07:11:17;;;;;;;19.77;9.90;;;;;;;;;;5055593;28;20040;-73
2023/02/09 07:13:44;;;;;;;19.27;7.57;;;;;;;;;;5057386;28;20040;-72
2023/02/09 07:16:11;;;;;;;54.30;23.75;;;;;;;;;;5055448;28;20550;-72
2023/02/09 07:18:37;;;;;;;51.83;25.55;;;;;;;;;;5062555;28;20032;-73
2023/02/09 07:21:05;;;;;;;54.75;27.30;;;;;;;;;;5055654;28;20033;-72
2023/02/09 07:23:31;;;;;;;60.30;29.08;;;;;;;;;;5057446;28;20060;-72
2023/02/09 07:26:02;;;;;;;60.33;27.98;;;;;;;;;;5041035;28;20036;-72
2023/02/09 07:28:28;;;;;;;39.63;20.80;;;;;;;;;;5062682;28;20036;-72
2023/02/09 07:30:54;;;;;;;41.33;18.35;;;;;;;;;;5058141;28;20040;-72
2023/02/09 07:33:20;;;;;;;45.60;21.92;;;;;;;;;;5060589;28;20033;-73
2023/02/09 07:35:47;;;;;;;47.28;22.08;;;;;;;;;;5058402;28;20055;-73
2023/02/09 07:38:13;;;;;;;40.97;20.40;;;;;;;;;;5061642;28;20029;-72
2023/02/09 07:40:40;;;;;;;32.38;16.90;;;;;;;;;;5060308;28;20037;-72
2023/02/09 07:43:06;;;;;;;30.92;15.25;;;;;;;;;;5060793;28;20051;-72
2023/02/09 07:45:32;;;;;;;26.63;11.45;;;;;;;;;;5046532;28;20040;-72
2023/02/09 07:47:59;;;;;;;28.17;13.15;;;;;;;;;;5061638;28;20017;-72
2023/02/09 07:50:25;;;;;;;26.83;13.20;;;;;;;;;;5057347;28;20048;-72
2023/02/09 07:52:55;;;;;;;32.85;13.13;;;;;;;;;;5060818;28;20069;-72
2023/02/09 07:55:21;;;;;;;30.17;16.20;;;;;;;;;;5060209;28;20041;-73
2023/02/09 07:57:47;;;;;;;38.70;17.20;;;;;;;;;;5058136;28;20823;-73
2023/02/09 08:00:13;;;;;;;31.27;18.05;;;;;;;;;;5058377;28;20040;-72
2023/02/09 08:02:39;;;;;;;40.72;19.25;;;;;;;;;;5061981;28;20035;-72
2023/02/09 08:05:11;;;;;;;35.05;17.73;;;;;;;;;;5062070;28;20032;-72
2023/02/09 08:07:37;;;;;;;39.65;18.80;;;;;;;;;;5063088;28;20029;-73
2023/02/09 08:10:03;;;;;;;46.55;21.10;;;;;;;;;;5060332;28;20055;-73
2023/02/09 08:15:16;;;;;;;46.33;22.52;;;;;;;;;;5054353;28;20179;-72
2023/02/09 08:17:42;;;;;;;43.85;22.17;;;;;;;;;;5057404;28;20476;-72
2023/02/09 08:20:11;;;;;;;41.28;19.15;;;;;;;;;;5055985;28;20036;-72
2023/02/09 08:22:40;;;;;;;40.75;20.90;;;;;;;;;;5057406;28;20599;-72
2023/02/09 08:25:07;;;;;;;51.28;26.67;;;;;;;;;;5059473;28;20052;-72
2023/02/09 08:27:33;;;;;;;42.97;22.88;;;;;;;;;;5058730;28;20032;-72
2023/02/09 08:29:59;;;;;;;35.25;16.27;;;;;;;;;;5058210;28;20036;-73
2023/02/09 08:32:25;;;;;;;33.85;14.98;;;;;;;;;;5054875;28;20111;-72
2023/02/09 08:34:51;;;;;;;38.03;15.90;;;;;;;;;;5057898;28;20365;-72
2023/02/09 08:37:17;;;;;;;37.33;17.42;;;;;;;;;;5057112;28;20646;-72
2023/02/09 08:39:44;;;;;;;40.70;16.73;;;;;;;;;;5053539;28;20049;-72
2023/02/09 08:42:10;;;;;;;36.08;15.52;;;;;;;;;;5053733;28;20028;-72
2023/02/09 08:44:36;;;;;;;37.13;16.58;;;;;;;;;;5055302;28;20111;-72
2023/02/09 08:47:02;;;;;;;31.60;15.80;;;;;;;;;;5058916;28;20052;-71
2023/02/09 08:49:28;;;;;;;33.63;15.27;;;;;;;;;;5043163;28;20029;-71
2023/02/09 08:51:54;;;;;;;40.92;17.10;;;;;;;;;;5057852;28;20032;-72
2023/02/09 08:54:20;;;;;;;42.92;19.80;;;;;;;;;;5054758;28;20036;-72
2023/02/09 08:56:46;;;;;;;49.50;25.10;;;;;;;;;;5058527;28;20465;-72
2023/02/09 08:59:12;;;;;;;42.85;20.83;;;;;;;;;;5058508;28;20128;-72
2023/02/09 09:01:39;;;;;;;41.50;17.77;;;;;;;;;;5054170;28;20025;-72
2023/02/09 09:04:06;;;;;;;30.70;13.60;;;;;;;;;;5060324;28;20029;-72
2023/02/09 09:06:32;;;;;;;38.22;14.65;;;;;;;;;;5063209;28;20032;-72
2023/02/09 09:08:58;;;;;;;40.20;17.20;;;;;;;;;;5042586;28;20123;-72
2023/02/09 09:11:24;;;;;;;52.80;18.67;;;;;;;;;;5065007;28;20119;-72
2023/02/09 09:13:50;;;;;;;49.72;18.50;;;;;;;;;;5065371;28;20821;-72
2023/02/09 09:16:17;;;;;;;67.82;18.15;;;;;;;;;;5061566;28;20112;-72
2023/02/09 09:18:43;;;;;;;50.15;16.92;;;;;;;;;;5056967;28;20032;-72
2023/02/09 09:21:09;;;;;;;47.88;16.52;;;;;;;;;;5065172;28;20108;-72
2023/02/09 09:23:36;;;;;;;40.97;17.00;;;;;;;;;;5065701;28;20077;-72
2023/02/09 09:26:02;;;;;;;29.58;13.43;;;;;;;;;;5065673;28;20105;-72
2023/02/09 09:28:29;;;;;;;30.92;12.50;;;;;;;;;;5062609;28;20032;-72
2023/02/09 09:30:55;;;;;;;28.52;12.45;;;;;;;;;;5065384;28;20024;-71
2023/02/09 09:33:21;;;;;;;23.75;11.45;;;;;;;;;;5061725;28;20043;-72
2023/02/09 09:35:47;;;;;;;23.10;12.15;;;;;;;;;;5063827;28;20056;-72
2023/02/09 09:38:13;;;;;;;29.50;12.73;;;;;;;;;;5059729;28;20057;-72
2023/02/09 09:40:40;;;;;;;29.42;11.68;;;;;;;;;;5065457;28;20460;-72
2023/02/09 09:43:30;;;;;;;27.15;12.32;;;;;;;;;;5060988;28;20105;-72
2023/02/09 09:45:57;;;;;;;32.92;13.77;;;;;;;;;;5063114;28;20036;-72
2023/02/09 09:48:24;;;;;;;30.98;16.40;;;;;;;;;;5061045;28;20052;-72
2023/02/09 09:50:55;;;;;;;39.88;16.35;;;;;;;;;;5069390;28;20025;-72
2023/02/09 09:53:30;;;;;;;33.97;15.02;;;;;;;;;;5066353;28;20808;-71
2023/02/09 09:55:58;;;;;;;28.60;14.27;;;;;;;;;;5068613;28;20052;-72
2023/02/09 09:58:24;;;;;;;25.30;12.50;;;;;;;;;;5061888;28;20041;-71
2023/02/09 10:00:51;;;;;;;29.10;12.10;;;;;;;;;;5063200;28;20107;-72
2023/02/09 10:03:18;;;;;;;29.48;13.13;;;;;;;;;;5063745;28;20037;-72
2023/02/09 10:05:45;;;;;;;29.63;13.52;;;;;;;;;;5062423;28;20029;-72
2023/02/09 10:08:29;;;;;;;31.08;13.00;;;;;;;;;;5062182;28;20033;-72
2023/02/09 10:10:55;;;;;;;23.40;10.85;;;;;;;;;;5059349;28;20119;-72
2023/02/09 10:13:25;;;;;;;23.95;10.25;;;;;;;;;;5068011;28;20753;-72
2023/02/09 10:15:56;;;;;;;25.27;9.65;;;;;;;;;;5064671;28;20040;-72
2023/02/09 10:18:24;;;;;;;25.13;10.85;;;;;;;;;;5058005;28;20037;-73
2023/02/09 10:20:53;;;;;;;31.30;12.80;;;;;;;;;;5042713;28;20055;-72
2023/02/09 10:23:27;;;;;;;27.75;12.05;;;;;;;;;;5064130;28;20048;-72
2023/02/09 10:26:02;;;;;;;29.88;10.75;;;;;;;;;;5053206;28;20029;-73
2023/02/09 10:28:30;;;;;;;33.00;12.45;;;;;;;;;;5058822;28;20040;-72
2023/02/09 10:30:58;;;;;;;34.08;11.75;;;;;;;;;;5064905;28;20021;-72
2023/02/09 10:33:24;;;;;;;27.88;10.27;;;;;;;;;;5063246;28;20036;-72
2023/02/09 10:35:55;;;;;;;24.90;8.38;;;;;;;;;;5059857;28;20021;-72
2023/02/09 10:38:22;;;;;;;18.48;8.30;;;;;;;;;;5058465;28;20649;-73
2023/02/09 10:40:48;;;;;;;17.27;7.95;;;;;;;;;;5055921;28;20036;-73
2023/02/09 10:43:26;;;;;;;20.42;7.78;;;;;;;;;;5057485;28;20028;-72
2023/02/09 10:45:56;;;;;;;20.25;8.77;;;;;;;;;;5057649;28;20867;-72
2023/02/09 10:48:23;;;;;;;23.17;10.18;;;;;;;;;;5059721;28;20094;-72
2023/02/09 10:50:57;;;;;;;27.25;10.40;;;;;;;;;;5060878;28;20572;-72
2023/02/09 10:53:23;;;;;;;39.38;18.70;;;;;;;;;;5062001;28;20052;-72
2023/02/09 10:55:49;;;;;;;25.73;12.32;;;;;;;;;;5054035;28;20028;-72
2023/02/09 10:58:41;;;;;;;24.80;12.68;;;;;;;;;;5058351;28;20040;-72
2023/02/09 11:01:10;;;;;;;25.55;12.02;;;;;;;;;;5058351;28;20044;-73
2023/02/09 11:03:45;;;;;;;27.35;10.75;;;;;;;;;;5060431;28;20041;-73
2023/02/09 11:06:20;;;;;;;19.45;7.80;;;;;;;;;;5066917;28;20362;-72
2023/02/09 11:08:49;;;;;;;14.05;6.53;;;;;;;;;;5064967;28;20470;-72
2023/02/09 11:11:35;;;;;;;15.32;5.93;;;;;;;;;;5067345;28;20025;-73
2023/02/09 11:14:02;;;;;;;16.33;7.97;;;;;;;;;;5062874;28;20032;-72
2023/02/09 11:16:35;;;;;;;14.65;6.63;;;;;;;;;;5062459;28;20040;-73
2023/02/09 11:19:12;;;;;;;17.88;7.20;;;;;;;;;;5061063;28;20028;-72
2023/02/09 11:21:38;;;;;;;15.73;6.85;;;;;;;;;;5060053;28;20499;-73
2023/02/09 11:24:16;;;;;;;23.20;7.93;;;;;;;;;;5061476;28;20089;-73
2023/02/09 11:26:47;;;;;;;18.73;7.03;;;;;;;;;;5058360;28;20377;-72
2023/02/09 11:29:13;;;;;;;20.10;7.53;;;;;;;;;;5056539;28;20768;-72
2023/02/09 11:31:39;;;;;;;19.73;6.93;;;;;;;;;;5065750;28;20033;-72
2023/02/09 11:34:05;;;;;;;14.13;5.53;;;;;;;;;;5064744;28;20029;-72
2023/02/09 11:36:43;;;;;;;18.88;5.28;;;;;;;;;;5060193;28;20086;-72
2023/02/09 11:39:13;;;;;;;11.80;6.25;;;;;;;;;;5062362;28;20674;-72
2023/02/09 11:44:44;;;;;;;16.35;5.65;;;;;;;;;;5056374;28;20032;-72
2023/02/09 11:47:13;;;;;;;19.20;6.10;;;;;;;;;;5044800;28;20582;-72
2023/02/09 11:49:43;;;;;;;18.15;7.18;;;;;;;;;;5059587;28;20032;-72
2023/02/09 11:52:10;;;;;;;19.95;6.82;;;;;;;;;;5059262;28;20040;-72
2023/02/09 11:54:37;;;;;;;22.10;7.68;;;;;;;;;;5057789;28;20024;-71
2023/02/09 11:57:11;;;;;;;20.08;8.00;;;;;;;;;;5061252;28;20123;-72
2023/02/09 11:59:39;;;;;;;30.77;14.38;;;;;;;;;;5059742;28;20025;-73
2023/02/09 12:02:17;;;;;;;19.05;8.57;;;;;;;;;;5058418;28;20040;-72
2023/02/09 12:04:48;;;;;;;14.98;7.15;;;;;;;;;;5063414;28;20032;-72
2023/02/09 12:07:21;;;;;;;17.98;7.68;;;;;;;;;;5062225;28;20080;-72
2023/02/09 12:09:46;;;;;;;;;;;;;;;;;;5059488;28;20359;-72
2023/02/09 12:12:24;;;;;;;13.73;5.75;;;;;;;;;;5056082;28;19990;-73
2023/02/09 12:14:56;;;;;;;13.57;5.72;;;;;;;;;;5058656;28;20037;-73
2023/02/09 12:17:25;;;;;;;18.58;8.23;;;;;;;;;;5058234;28;20974;-72
2023/02/09 12:19:58;;;;;;;19.13;6.90;;;;;;;;;;5062848;28;20111;-72
2023/02/09 12:22:24;;;;;;;;;;;;;;;;;;5058795;28;20088;-73
2023/02/09 12:25:08;;;;;;;13.05;6.20;;;;;;;;;;5060004;28;19912;-72
2023/02/09 12:27:37;;;;;;;20.83;6.30;;;;;;;;;;5063847;28;20035;-72
2023/02/09 12:30:23;;;;;;;12.52;6.38;;;;;;;;;;5056257;28;20036;-72
2023/02/09 12:32:49;;;;;;;16.08;6.90;;;;;;;;;;5058317;28;20029;-72
2023/02/09 12:35:24;;;;;;;18.20;6.55;;;;;;;;;;5057593;28;20044;-73
2023/02/09 12:38:08;;;;;;;18.55;5.90;;;;;;;;;;5063807;28;20055;-73
2023/02/09 12:40:36;;;;;;;18.58;7.13;;;;;;;;;;5053295;28;20995;-73
2023/02/09 12:43:05;;;;;;;15.20;5.38;;;;;;;;;;5061851;28;20113;-73
2023/02/09 12:45:42;;;;;;;10.98;5.18;;;;;;;;;;5056577;28;20691;-74
2023/02/09 12:48:07;;;;;;;12.52;5.03;;;;;;;;;;5058028;28;20610;-72
2023/02/09 12:50:43;;;;;;;13.75;5.25;;;;;;;;;;5059236;28;20159;-73
2023/02/09 12:53:21;;;;;;;15.18;5.72;;;;;;;;;;5056653;28;20033;-73
2023/02/09 12:55:59;;;;;;;9.15;4.82;;;;;;;;;;5060072;28;20064;-72
2023/02/09 12:58:43;;;;;;;13.63;4.88;;;;;;;;;;5058907;28;20063;-73
2023/02/09 13:01:10;;;;;;;12.48;4.70;;;;;;;;;;5061872;28;20040;-72
2023/02/09 13:03:44;;;;;;;12.32;4.63;;;;;;;;;;5056484;28;20060;-73
2023/02/09 13:06:21;;;;;;;8.00;3.42;;;;;;;;;;5057816;28;20489;-73
2023/02/09 13:08:49;;;;;;;9.80;3.33;;;;;;;;;;5062046;28;20032;-72
2023/02/09 13:11:43;;;;;;;10.82;4.20;;;;;;;;;;5059323;28;20112;-73
2023/02/09 13:14:10;;;;;;;11.18;4.10;;;;;;;;;;5052427;28;20033;-72
2023/02/09 13:16:45;;;;;;;8.98;4.18;;;;;;;;;;5049268;28;20041;-72
2023/02/09 13:19:30;;;;;;;10.20;3.90;;;;;;;;;;5059417;28;20039;-73
2023/02/09 13:22:01;;;;;;;16.98;5.18;;;;;;;;;;5059756;28;20059;-73
2023/02/09 13:24:38;;;;;;;12.23;4.80;;;;;;;;;;5059907;28;20062;-73
2023/02/09 13:27:15;;;;;;;12.82;4.78;;;;;;;;;;5065042;28;20060;-73
2023/02/09 13:29:47;;;;;;;9.30;4.32;;;;;;;;;;5061947;28;20459;-73
2023/02/09 13:32:15;;;;;;;9.55;4.60;;;;;;;;;;5060469;28;20078;-72
2023/02/09 13:35:00;;;;;;;12.80;4.32;;;;;;;;;;5063003;28;20064;-72
2023/02/09 13:37:48;;;;;;;11.25;5.05;;;;;;;;;;5057099;28;20110;-72
2023/02/09 13:40:14;;;;;;;17.63;5.40;;;;;;;;;;5051856;28;20035;-73
2023/02/09 13:42:51;;;;;;;12.02;4.63;;;;;;;;;;5061847;28;20036;-73
2023/02/09 13:45:17;;;;;;;13.73;4.75;;;;;;;;;;5061520;28;20032;-72
2023/02/09 13:47:44;;;;;;;11.55;4.90;;;;;;;;;;5056761;28;20032;-73
2023/02/09 13:50:14;;;;;;;12.48;5.75;;;;;;;;;;5049670;28;20501;-73
2023/02/09 13:52:40;;;;;;;22.80;5.65;;;;;;;;;;5058605;28;20074;-73
2023/02/09 13:55:15;;;;;;;12.23;4.68;;;;;;;;;;5067478;28;20040;-74
2023/02/09 13:57:43;;;;;;;12.93;4.47;;;;;;;;;;5062053;28;20478;-73
2023/02/09 14:00:09;;;;;;;13.18;4.55;;;;;;;;;;5066050;28;20039;-73
2023/02/09 14:02:35;;;;;;;12.25;4.55;;;;;;;;;;5063357;28;20033;-73
2023/02/09 14:05:03;;;;;;;11.60;3.92;;;;;;;;;;5060867;28;20448;-73
2023/02/09 14:07:32;;;;;;;10.43;4.35;;;;;;;;;;5057017;28;20033;-73
2023/02/09 14:10:01;;;;;;;11.70;3.53;;;;;;;;;;5060429;28;20103;-73
2023/02/09 14:12:54;;;;;;;11.35;3.65;;;;;;;;;;5055941;28;20037;-73
2023/02/09 14:18:22;;;;;;;9.27;3.90;;;;;;;;;;5062512;28;20559;-73
2023/02/09 14:21:17;;;;;;;12.55;4.38;;;;;;;;;;5066035;28;20029;-73
2023/02/09 14:23:49;;;;;;;14.60;4.18;;;;;;;;;;5038385;28;20124;-73
2023/02/09 14:26:36;;;;;;;11.18;4.43;;;;;;;;;;5067145;28;20021;-73
2023/02/09 14:29:08;;;;;;;10.88;4.07;;;;;;;;;;5059444;28;20596;-73
2023/02/09 14:31:36;;;;;;;11.70;4.45;;;;;;;;;;5063251;28;20025;-73
2023/02/09 14:34:02;;;;;;;10.82;4.22;;;;;;;;;;5063130;28;20128;-73
2023/02/09 14:36:32;;;;;;;9.52;4.07;;;;;;;;;;5063229;28;20043;-73
2023/02/09 14:39:15;;;;;;;10.50;3.53;;;;;;;;;;5065289;28;20033;-73
2023/02/09 14:41:41;;;;;;;12.38;4.50;;;;;;;;;;5058988;28;20071;-73
2023/02/09 14:44:07;;;;;;;11.07;4.90;;;;;;;;;;5059271;28;20056;-72
2023/02/09 14:47:05;;;;;;;9.93;4.07;;;;;;;;;;5045435;28;20036;-72
2023/02/09 14:49:31;;;;;;;9.30;2.97;;;;;;;;;;4991981;28;20036;-73